sensor_id;sensor_type;location;lat;lon;timestamp;pressure;altitude;pressure_sealevel;temperature;humidity
66945;BME280;53853;51.982;5.928;2023-04-16T00:02:15;102027.59;;;9.52;80.23
66945;BME280;53853;51.982;5.928;2023-04-16T00:04:47;102025.75;;;9.53;80.32
66945;BME280;53853;51.982;5.928;2023-04-16T00:07:17;102033.13;;;9.49;80.55
66945;BME280;53853;51.982;5.928;2023-04-16T00:09:47;102028.16;;;9.45;80.85
66945;BME280;53853;51.982;5.928;2023-04-16T00:12:16;102036.00;;;9.46;80.74
66945;BME280;53853;51.982;5.928;2023-04-16T00:14:46;102036.13;;;9.45;81.24
66945;BME280;53853;51.982;5.928;2023-04-16T00:17:16;102028.25;;;9.43;81.36
66945;BME280;53853;51.982;5.928;2023-04-16T00:19:49;102033.47;;;9.45;81.33
66945;BME280;53853;51.982;5.928;2023-04-16T00:22:18;102020.28;;;9.43;81.02
66945;BME280;53853;51.982;5.928;2023-04-16T00:24:48;102027.19;;;9.46;81.20
66945;BME280;53853;51.982;5.928;2023-04-16T00:27:19;102028.97;;;9.45;81.03
66945;BME280;53853;51.982;5.928;2023-04-16T00:29:48;102038.06;;;9.42;82.12
66945;BME280;53853;51.982;5.928;2023-04-16T00:32:18;102035.41;;;9.42;82.21
66945;BME280;53853;51.982;5.928;2023-04-16T00:34:51;102033.47;;;9.45;81.93
66945;BME280;53853;51.982;5.928;2023-04-16T00:37:20;102036.84;;;9.47;82.10
66945;BME280;53853;51.982;5.928;2023-04-16T00:39:50;102031.66;;;9.45;82.27
66945;BME280;53853;51.982;5.928;2023-04-16T00:42:20;102033.47;;;9.45;82.27
66945;BME280;53853;51.982;5.928;2023-04-16T00:44:50;102038.78;;;9.45;82.33
66945;BME280;53853;51.982;5.928;2023-04-16T00:47:21;102026.22;;;9.47;82.25
66945;BME280;53853;51.982;5.928;2023-04-16T00:49:54;102036.97;;;9.45;82.51
66945;BME280;53853;51.982;5.928;2023-04-16T00:52:24;102037.84;;;9.46;82.62
66945;BME280;53853;51.982;5.928;2023-04-16T00:54:54;102034.31;;;9.45;82.58
66945;BME280;53853;51.982;5.928;2023-04-16T00:57:24;102035.91;;;9.48;82.58
66945;BME280;53853;51.982;5.928;2023-04-16T00:59:54;102030.34;;;9.51;82.20
66945;BME280;53853;51.982;5.928;2023-04-16T01:02:25;102035.56;;;9.52;82.34
66945;BME280;53853;51.982;5.928;2023-04-16T01:04:57;102042.94;;;9.49;82.61
66945;BME280;53853;51.982;5.928;2023-04-16T01:07:27;102036.63;;;9.50;82.37
66945;BME280;53853;51.982;5.928;2023-04-16T01:09:57;102043.53;;;9.52;82.29
66945;BME280;53853;51.982;5.928;2023-04-16T01:12:27;102033.75;;;9.53;82.24
66945;BME280;53853;51.982;5.928;2023-04-16T01:14:57;102033.63;;;9.54;82.46
66945;BME280;53853;51.982;5.928;2023-04-16T01:17:26;102032.91;;;9.52;82.52
66945;BME280;53853;51.982;5.928;2023-04-16T01:20:00;102036.41;;;9.53;83.20
66945;BME280;53853;51.982;5.928;2023-04-16T01:22:33;102037.84;;;9.46;83.23
66945;BME280;53853;51.982;5.928;2023-04-16T01:25:03;102043.03;;;9.47;82.81
66945;BME280;53853;51.982;5.928;2023-04-16T01:27:33;102045.47;;;9.50;82.78
66945;BME280;53853;51.982;5.928;2023-04-16T01:30:05;102045.16;;;9.55;82.87
66945;BME280;53853;51.982;5.928;2023-04-16T01:32:46;102040.03;;;9.52;82.72
66945;BME280;53853;51.982;5.928;2023-04-16T01:35:16;102036.28;;;9.54;82.64
66945;BME280;53853;51.982;5.928;2023-04-16T01:37:49;102050.25;;;9.58;82.42
66945;BME280;53853;51.982;5.928;2023-04-16T01:40:19;102041.28;;;9.59;82.42
66945;BME280;53853;51.982;5.928;2023-04-16T01:42:49;102036.69;;;9.61;82.38
66945;BME280;53853;51.982;5.928;2023-04-16T01:45:19;102039.97;;;9.65;82.27
66945;BME280;53853;51.982;5.928;2023-04-16T01:47:49;102039.00;;;9.66;82.03
66945;BME280;53853;51.982;5.928;2023-04-16T01:50:21;102038.03;;;9.67;82.05
66945;BME280;53853;51.982;5.928;2023-04-16T01:52:54;102040.38;;;9.71;81.97
66945;BME280;53853;51.982;5.928;2023-04-16T01:55:23;102046.31;;;9.75;82.15
66945;BME280;53853;51.982;5.928;2023-04-16T01:57:53;102047.75;;;9.68;82.22
66945;BME280;53853;51.982;5.928;2023-04-16T02:00:26;102044.22;;;9.67;82.25
66945;BME280;53853;51.982;5.928;2023-04-16T02:02:56;102039.88;;;9.66;82.34
66945;BME280;53853;51.982;5.928;2023-04-16T02:05:28;102048.34;;;9.71;82.31
66945;BME280;53853;51.982;5.928;2023-04-16T02:08:00;102042.81;;;9.74;82.03
66945;BME280;53853;51.982;5.928;2023-04-16T02:10:30;102046.19;;;9.76;81.83
66945;BME280;53853;51.982;5.928;2023-04-16T02:13:00;102046.06;;;9.78;81.80
66945;BME280;53853;51.982;5.928;2023-04-16T02:15:30;102050.69;;;9.76;81.84
66945;BME280;53853;51.982;5.928;2023-04-16T02:18:00;102051.50;;;9.76;82.27
66945;BME280;53853;51.982;5.928;2023-04-16T02:20:30;102049.19;;;9.72;82.24
66945;BME280;53853;51.982;5.928;2023-04-16T02:23:04;102042.06;;;9.72;82.05
66945;BME280;53853;51.982;5.928;2023-04-16T02:25:38;102040.97;;;9.75;81.99
66945;BME280;53853;51.982;5.928;2023-04-16T02:28:11;102040.25;;;9.73;82.15
66945;BME280;53853;51.982;5.928;2023-04-16T02:30:42;102044.50;;;9.75;81.89
66945;BME280;53853;51.982;5.928;2023-04-16T02:33:14;102041.47;;;9.80;81.85
66945;BME280;53853;51.982;5.928;2023-04-16T02:35:55;102053.22;;;9.77;82.04
66945;BME280;53853;51.982;5.928;2023-04-16T02:38:27;102044.25;;;9.78;82.14
66945;BME280;53853;51.982;5.928;2023-04-16T02:40:57;102042.56;;;9.77;82.08
66945;BME280;53853;51.982;5.928;2023-04-16T02:43:27;102047.56;;;9.82;81.95
66945;BME280;53853;51.982;5.928;2023-04-16T02:45:57;102041.34;;;9.82;81.85
66945;BME280;53853;51.982;5.928;2023-04-16T02:48:27;102048.28;;;9.84;81.44
66945;BME280;53853;51.982;5.928;2023-04-16T02:53:39;102056.88;;;9.88;81.43
66945;BME280;53853;51.982;5.928;2023-04-16T02:56:11;102051.31;;;9.91;81.16
66945;BME280;53853;51.982;5.928;2023-04-16T02:58:41;102056.88;;;9.88;81.30
66945;BME280;53853;51.982;5.928;2023-04-16T03:01:12;102049.00;;;9.86;81.32
66945;BME280;53853;51.982;5.928;2023-04-16T03:03:42;102053.03;;;9.92;81.51
66945;BME280;53853;51.982;5.928;2023-04-16T03:06:12;102047.72;;;9.92;81.54
66945;BME280;53853;51.982;5.928;2023-04-16T03:08:44;102053.75;;;9.94;81.29
66945;BME280;53853;51.982;5.928;2023-04-16T03:11:14;102053.25;;;9.89;81.20
66945;BME280;53853;51.982;5.928;2023-04-16T03:13:44;102063.91;;;9.89;81.40
66945;BME280;53853;51.982;5.928;2023-04-16T03:16:14;102064.03;;;9.87;81.57
66945;BME280;53853;51.982;5.928;2023-04-16T03:18:44;102068.75;;;9.84;81.69
66945;BME280;53853;51.982;5.928;2023-04-16T03:21:14;102070.53;;;9.83;81.80
66945;BME280;53853;51.982;5.928;2023-04-16T03:23:46;102083.72;;;9.85;81.47
66945;BME280;53853;51.982;5.928;2023-04-16T03:26:16;102072.13;;;9.86;81.81
66945;BME280;53853;51.982;5.928;2023-04-16T03:28:47;102073.94;;;9.85;81.69
66945;BME280;53853;51.982;5.928;2023-04-16T03:31:17;102078.41;;;9.85;81.47
66945;BME280;53853;51.982;5.928;2023-04-16T03:33:47;102077.34;;;9.87;81.29
66945;BME280;53853;51.982;5.928;2023-04-16T03:36:17;102077.22;;;9.89;81.19
66945;BME280;53853;51.982;5.928;2023-04-16T03:38:51;102083.91;;;9.94;81.21
66945;BME280;53853;51.982;5.928;2023-04-16T03:41:21;102083.91;;;9.94;80.90
66945;BME280;53853;51.982;5.928;2023-04-16T03:43:51;102082.09;;;9.95;81.32
66945;BME280;53853;51.982;5.928;2023-04-16T03:46:21;102084.75;;;9.95;81.12
66945;BME280;53853;51.982;5.928;2023-04-16T03:48:51;102076.78;;;9.95;80.83
66945;BME280;53853;51.982;5.928;2023-04-16T03:51:21;102088.25;;;9.95;80.97
66945;BME280;53853;51.982;5.928;2023-04-16T03:53:54;102086.47;;;9.96;81.11
66945;BME280;53853;51.982;5.928;2023-04-16T03:56:25;102090.31;;;9.92;81.05
66945;BME280;53853;51.982;5.928;2023-04-16T03:58:56;102085.00;;;9.92;80.83
66945;BME280;53853;51.982;5.928;2023-04-16T04:01:26;102078.59;;;9.94;80.77
66945;BME280;53853;51.982;5.928;2023-04-16T04:03:56;102087.19;;;9.98;80.71
66945;BME280;53853;51.982;5.928;2023-04-16T04:06:26;102077.50;;;9.97;80.75
66945;BME280;53853;51.982;5.928;2023-04-16T04:09:00;102082.72;;;9.98;80.49
66945;BME280;53853;51.982;5.928;2023-04-16T04:11:30;102088.66;;;10.02;80.27
66945;BME280;53853;51.982;5.928;2023-04-16T04:14:00;102089.50;;;10.03;80.46
66945;BME280;53853;51.982;5.928;2023-04-16T04:16:31;102093.97;;;10.02;80.45
66945;BME280;53853;51.982;5.928;2023-04-16T04:19:01;102090.47;;;10.02;80.74
66945;BME280;53853;51.982;5.928;2023-04-16T04:21:31;102093.47;;;9.97;80.83
66945;BME280;53853;51.982;5.928;2023-04-16T04:24:03;102100.50;;;9.98;81.07
66945;BME280;53853;51.982;5.928;2023-04-16T04:26:34;102095.41;;;9.95;81.03
66945;BME280;53853;51.982;5.928;2023-04-16T04:29:04;102106.06;;;9.95;81.15
66945;BME280;53853;51.982;5.928;2023-04-16T04:31:34;102107.78;;;9.96;80.99
66945;BME280;53853;51.982;5.928;2023-04-16T04:34:04;102102.56;;;9.94;81.46
66945;BME280;53853;51.982;5.928;2023-04-16T04:36:34;102105.34;;;9.93;81.32
66945;BME280;53853;51.982;5.928;2023-04-16T04:39:07;102102.69;;;9.93;81.36
66945;BME280;53853;51.982;5.928;2023-04-16T04:41:37;102105.34;;;9.93;81.37
66945;BME280;53853;51.982;5.928;2023-04-16T04:44:07;102099.03;;;9.94;81.46
66945;BME280;53853;51.982;5.928;2023-04-16T04:46:37;102102.44;;;9.96;81.48
66945;BME280;53853;51.982;5.928;2023-04-16T04:49:07;102106.78;;;9.97;81.20
66945;BME280;53853;51.982;5.928;2023-04-16T04:51:37;102105.84;;;9.98;81.19
66945;BME280;53853;51.982;5.928;2023-04-16T04:54:09;102112.13;;;9.97;81.07
66945;BME280;53853;51.982;5.928;2023-04-16T04:56:39;102106.19;;;9.93;81.40
66945;BME280;53853;51.982;5.928;2023-04-16T04:59:11;102110.66;;;9.93;81.22
66945;BME280;53853;51.982;5.928;2023-04-16T05:01:42;102118.53;;;9.94;81.46
66945;BME280;53853;51.982;5.928;2023-04-16T05:04:11;102115.00;;;9.94;81.45
66945;BME280;53853;51.982;5.928;2023-04-16T05:06:41;102111.72;;;9.90;81.29
66945;BME280;53853;51.982;5.928;2023-04-16T05:09:14;102121.44;;;9.91;81.63
66945;BME280;53853;51.982;5.928;2023-04-16T05:11:44;102121.53;;;9.90;81.68
66945;BME280;53853;51.982;5.928;2023-04-16T05:14:14;102133.25;;;9.87;81.76
66945;BME280;53853;51.982;5.928;2023-04-16T05:16:44;102131.44;;;9.88;82.18
66945;BME280;53853;51.982;5.928;2023-04-16T05:19:14;102131.78;;;9.83;82.47
66945;BME280;53853;51.982;5.928;2023-04-16T05:21:44;102131.88;;;9.82;82.74
66945;BME280;53853;51.982;5.928;2023-04-16T05:24:18;102135.91;;;9.87;82.52
66945;BME280;53853;51.982;5.928;2023-04-16T05:26:48;102129.75;;;9.87;82.54
66945;BME280;53853;51.982;5.928;2023-04-16T05:29:18;102131.44;;;9.88;82.54
66945;BME280;53853;51.982;5.928;2023-04-16T05:31:48;102140.78;;;9.93;82.43
66945;BME280;53853;51.982;5.928;2023-04-16T05:34:18;102134.41;;;9.96;82.27
66945;BME280;53853;51.982;5.928;2023-04-16T05:36:47;102138.53;;;10.00;82.19
66945;BME280;53853;51.982;5.928;2023-04-16T05:39:20;102146.28;;;10.03;82.02
66945;BME280;53853;51.982;5.928;2023-04-16T05:41:50;102141.19;;;10.00;81.96
66945;BME280;53853;51.982;5.928;2023-04-16T05:44:19;102145.56;;;10.01;82.09
66945;BME280;53853;51.982;5.928;2023-04-16T05:46:49;102153.44;;;10.03;82.22
66945;BME280;53853;51.982;5.928;2023-04-16T05:49:19;102143.72;;;10.02;82.36
66945;BME280;53853;51.982;5.928;2023-04-16T05:51:49;102144.34;;;10.05;82.29
66945;BME280;53853;51.982;5.928;2023-04-16T05:54:22;102139.25;;;10.02;82.15
66945;BME280;53853;51.982;5.928;2023-04-16T05:56:52;102147.75;;;10.07;82.21
66945;BME280;53853;51.982;5.928;2023-04-16T05:59:22;102157.09;;;10.13;81.76
66945;BME280;53853;51.982;5.928;2023-04-16T06:01:52;102156.25;;;10.12;81.59
66945;BME280;53853;51.982;5.928;2023-04-16T06:04:22;102144.88;;;10.10;81.68
66945;BME280;53853;51.982;5.928;2023-04-16T06:06:52;102153.72;;;10.11;81.51
66945;BME280;53853;51.982;5.928;2023-04-16T06:09:24;102153.38;;;10.15;81.44
66945;BME280;53853;51.982;5.928;2023-04-16T06:11:54;102160.38;;;10.16;81.03
66945;BME280;53853;51.982;5.928;2023-04-16T06:14:24;102160.38;;;10.16;81.05
66945;BME280;53853;51.982;5.928;2023-04-16T06:16:54;102160.03;;;10.21;80.99
66945;BME280;53853;51.982;5.928;2023-04-16T06:19:24;102172.06;;;10.27;80.64
66945;BME280;53853;51.982;5.928;2023-04-16T06:21:54;102164.91;;;10.27;80.38
66945;BME280;53853;51.982;5.928;2023-04-16T06:24:26;102169.16;;;10.30;80.37
66945;BME280;53853;51.982;5.928;2023-04-16T06:26:56;102170.00;;;10.30;80.29
66945;BME280;53853;51.982;5.928;2023-04-16T06:29:26;102183.00;;;10.35;80.26
66945;BME280;53853;51.982;5.928;2023-04-16T06:31:56;102188.00;;;10.40;80.08
66945;BME280;53853;51.982;5.928;2023-04-16T06:34:27;102181.84;;;10.39;79.89
66945;BME280;53853;51.982;5.928;2023-04-16T06:36:56;102181.72;;;10.41;79.74
66945;BME280;53853;51.982;5.928;2023-04-16T06:39:29;102188.84;;;10.40;79.69
66945;BME280;53853;51.982;5.928;2023-04-16T06:41:59;102196.59;;;10.43;79.32
66945;BME280;53853;51.982;5.928;2023-04-16T06:44:29;102204.38;;;10.46;79.62
66945;BME280;53853;51.982;5.928;2023-04-16T06:46:59;102207.44;;;10.53;79.44
66945;BME280;53853;51.982;5.928;2023-04-16T06:49:29;102199.31;;;10.55;79.26
66945;BME280;53853;51.982;5.928;2023-04-16T06:51:59;102203.22;;;10.62;79.17
66945;BME280;53853;51.982;5.928;2023-04-16T06:54:31;102209.03;;;10.67;78.94
66945;BME280;53853;51.982;5.928;2023-04-16T06:57:01;102206.63;;;10.75;78.96
66945;BME280;53853;51.982;5.928;2023-04-16T06:59:31;102207.03;;;10.82;78.52
66945;BME280;53853;51.982;5.928;2023-04-16T07:02:01;102210.09;;;10.88;78.32
66945;BME280;53853;51.982;5.928;2023-04-16T07:04:31;102213.59;;;10.89;77.98
66945;BME280;53853;51.982;5.928;2023-04-16T07:07:01;102216.13;;;10.91;77.74
66945;BME280;53853;51.982;5.928;2023-04-16T07:09:34;102218.69;;;10.92;77.40
66945;BME280;53853;51.982;5.928;2023-04-16T07:12:04;102220.53;;;10.92;77.34
66945;BME280;53853;51.982;5.928;2023-04-16T07:14:34;102224.03;;;10.92;77.34
66945;BME280;53853;51.982;5.928;2023-04-16T07:17:04;102222.47;;;11.01;77.30
66945;BME280;53853;51.982;5.928;2023-04-16T07:19:33;102229.50;;;11.02;76.94
66945;BME280;53853;51.982;5.928;2023-04-16T07:22:03;102225.16;;;11.01;77.14
66945;BME280;53853;51.982;5.928;2023-04-16T07:24:36;102229.25;;;11.05;76.96
66945;BME280;53853;51.982;5.928;2023-04-16T07:27:06;102230.84;;;11.08;76.91
66945;BME280;53853;51.982;5.928;2023-04-16T07:29:36;102227.72;;;11.14;76.71
66945;BME280;53853;51.982;5.928;2023-04-16T07:32:06;102227.47;;;11.17;75.98
66945;BME280;53853;51.982;5.928;2023-04-16T07:34:36;102228.91;;;11.21;76.32
66945;BME280;53853;51.982;5.928;2023-04-16T07:37:06;102234.88;;;11.24;75.99
66945;BME280;53853;51.982;5.928;2023-04-16T07:39:38;102232.69;;;11.30;75.99
66945;BME280;53853;51.982;5.928;2023-04-16T07:42:08;102240.22;;;11.36;75.40
66945;BME280;53853;51.982;5.928;2023-04-16T07:44:38;102241.91;;;11.37;74.91
66945;BME280;53853;51.982;5.928;2023-04-16T07:47:07;102247.13;;;11.38;74.97
66945;BME280;53853;51.982;5.928;2023-04-16T07:49:37;102254.78;;;11.43;75.22
66945;BME280;53853;51.982;5.928;2023-04-16T07:52:07;102249.91;;;11.48;74.81
66945;BME280;53853;51.982;5.928;2023-04-16T07:54:40;102252.47;;;11.50;74.43
66945;BME280;53853;51.982;5.928;2023-04-16T07:57:10;102250.19;;;11.45;74.45
66945;BME280;53853;51.982;5.928;2023-04-16T07:59:40;102259.88;;;11.46;74.49
66945;BME280;53853;51.982;5.928;2023-04-16T08:02:13;102256.38;;;11.46;74.24
66945;BME280;53853;51.982;5.928;2023-04-16T08:04:43;102251.63;;;11.49;73.99
66945;BME280;53853;51.982;5.928;2023-04-16T08:07:13;102255.13;;;11.50;74.09
66945;BME280;53853;51.982;5.928;2023-04-16T08:09:52;102262.91;;;11.53;73.88
66945;BME280;53853;51.982;5.928;2023-04-16T08:12:21;102261.81;;;11.55;74.23
66945;BME280;53853;51.982;5.928;2023-04-16T08:14:51;102265.72;;;11.63;73.95
66945;BME280;53853;51.982;5.928;2023-04-16T08:17:21;102269.72;;;11.68;73.91
66945;BME280;53853;51.982;5.928;2023-04-16T08:19:51;102269.22;;;11.74;73.69
66945;BME280;53853;51.982;5.928;2023-04-16T08:22:21;102282.56;;;11.74;73.43
66945;BME280;53853;51.982;5.928;2023-04-16T08:24:54;102281.50;;;11.77;73.43
66945;BME280;53853;51.982;5.928;2023-04-16T08:27:24;102277.72;;;11.79;73.64
66945;BME280;53853;51.982;5.928;2023-04-16T08:29:54;102283.41;;;11.86;73.44
66945;BME280;53853;51.982;5.928;2023-04-16T08:32:24;102285.94;;;11.88;73.20
66945;BME280;53853;51.982;5.928;2023-04-16T08:34:54;102286.56;;;11.91;73.38
66945;BME280;53853;51.982;5.928;2023-04-16T08:37:24;102283.56;;;11.96;73.03
66945;BME280;53853;51.982;5.928;2023-04-16T08:39:57;102280.78;;;11.98;72.66
66945;BME280;53853;51.982;5.928;2023-04-16T08:42:30;102286.25;;;11.96;72.20
66945;BME280;53853;51.982;5.928;2023-04-16T08:45:06;102289.75;;;11.96;72.65
66945;BME280;53853;51.982;5.928;2023-04-16T08:47:37;102294.97;;;11.98;72.72
66945;BME280;53853;51.982;5.928;2023-04-16T08:50:09;102301.50;;;12.05;72.49
66945;BME280;53853;51.982;5.928;2023-04-16T08:52:44;102299.84;;;12.04;72.00
66945;BME280;53853;51.982;5.928;2023-04-16T08:55:20;102296.69;;;11.99;72.09
66945;BME280;53853;51.982;5.928;2023-04-16T08:57:56;102302.88;;;12.00;72.60
66945;BME280;53853;51.982;5.928;2023-04-16T09:00:28;102304.81;;;12.09;72.57
66945;BME280;53853;51.982;5.928;2023-04-16T09:03:00;102308.78;;;12.14;72.26
66945;BME280;53853;51.982;5.928;2023-04-16T09:05:31;102305.38;;;12.24;72.54
66945;BME280;53853;51.982;5.928;2023-04-16T09:08:01;102308.03;;;12.35;72.40
66945;BME280;53853;51.982;5.928;2023-04-16T09:10:35;102301.22;;;12.42;72.23
66945;BME280;53853;51.982;5.928;2023-04-16T09:13:05;102308.47;;;12.52;71.33
66945;BME280;53853;51.982;5.928;2023-04-16T09:15:37;102315.72;;;12.61;71.84
66945;BME280;53853;51.982;5.928;2023-04-16T09:18:08;102315.81;;;12.71;71.30
66945;BME280;53853;51.982;5.928;2023-04-16T09:20:38;102311.91;;;12.75;70.34
66945;BME280;53853;51.982;5.928;2023-04-16T09:23:09;102313.34;;;12.79;69.69
66945;BME280;53853;51.982;5.928;2023-04-16T09:25:41;102318.47;;;12.82;69.80
66945;BME280;53853;51.982;5.928;2023-04-16T09:28:11;102313.09;;;12.82;68.39
66945;BME280;53853;51.982;5.928;2023-04-16T09:30:41;102318.47;;;12.82;69.14
66945;BME280;53853;51.982;5.928;2023-04-16T09:33:18;102317.94;;;12.88;69.15
66945;BME280;53853;51.982;5.928;2023-04-16T09:35:51;102327.41;;;12.92;68.68
66945;BME280;53853;51.982;5.928;2023-04-16T09:38:21;102324.47;;;12.95;68.73
66945;BME280;53853;51.982;5.928;2023-04-16T09:41:10;102315.16;;;13.11;69.02
66945;BME280;53853;51.982;5.928;2023-04-16T09:43:48;102324.56;;;13.26;68.06
66945;BME280;53853;51.982;5.928;2023-04-16T09:46:18;102328.16;;;13.36;67.36
66945;BME280;53853;51.982;5.928;2023-04-16T09:48:48;102327.91;;;13.39;67.28
66945;BME280;53853;51.982;5.928;2023-04-16T09:51:17;102326.94;;;13.40;67.60
66945;BME280;53853;51.982;5.928;2023-04-16T09:53:51;102321.63;;;13.50;67.00
66945;BME280;53853;51.982;5.928;2023-04-16T09:56:25;102325.53;;;13.67;67.88
66945;BME280;53853;51.982;5.928;2023-04-16T09:58:56;102324.75;;;13.86;67.99
66945;BME280;53853;51.982;5.928;2023-04-16T10:01:30;102330.72;;;14.00;67.20
66945;BME280;53853;51.982;5.928;2023-04-16T10:04:00;102333.16;;;14.12;66.54
66945;BME280;53853;51.982;5.928;2023-04-16T10:06:30;102327.97;;;14.30;66.31
66945;BME280;53853;51.982;5.928;2023-04-16T10:09:00;102336.63;;;14.44;65.92
66945;BME280;53853;51.982;5.928;2023-04-16T10:11:33;102332.56;;;14.59;65.52
66945;BME280;53853;51.982;5.928;2023-04-16T10:14:03;102327.94;;;14.71;64.08
66945;BME280;53853;51.982;5.928;2023-04-16T10:16:33;102326.41;;;14.78;63.18
66945;BME280;53853;51.982;5.928;2023-04-16T10:19:05;102332.72;;;14.87;63.42
66945;BME280;53853;51.982;5.928;2023-04-16T10:21:35;102328.91;;;14.99;62.65
66945;BME280;53853;51.982;5.928;2023-04-16T10:24:06;102328.78;;;15.11;61.47
66945;BME280;53853;51.982;5.928;2023-04-16T10:26:41;102327.63;;;15.23;61.58
66945;BME280;53853;51.982;5.928;2023-04-16T10:29:11;102328.31;;;15.25;59.05
66945;BME280;53853;51.982;5.928;2023-04-16T10:31:41;102325.50;;;15.27;59.60
66945;BME280;53853;51.982;5.928;2023-04-16T10:34:11;102331.56;;;15.29;60.04
66945;BME280;53853;51.982;5.928;2023-04-16T10:36:42;102332.56;;;15.28;60.08
66945;BME280;53853;51.982;5.928;2023-04-16T10:39:12;102329.44;;;15.32;60.73
66945;BME280;53853;51.982;5.928;2023-04-16T10:41:45;102330.00;;;15.36;60.89
66945;BME280;53853;51.982;5.928;2023-04-16T10:44:17;102334.69;;;15.34;60.57
66945;BME280;53853;51.982;5.928;2023-04-16T10:46:48;102331.28;;;15.32;59.37
66945;BME280;53853;51.982;5.928;2023-04-16T10:49:19;102322.66;;;15.28;60.28
66945;BME280;53853;51.982;5.928;2023-04-16T10:51:53;102336.22;;;15.27;59.94
66945;BME280;53853;51.982;5.928;2023-04-16T10:54:24;102334.53;;;15.26;60.54
66945;BME280;53853;51.982;5.928;2023-04-16T10:57:02;102324.66;;;15.26;60.23
66945;BME280;53853;51.982;5.928;2023-04-16T10:59:33;102326.63;;;15.34;60.16
66945;BME280;53853;51.982;5.928;2023-04-16T11:02:07;102320.34;;;15.43;60.21
66945;BME280;53853;51.982;5.928;2023-04-16T11:04:38;102317.38;;;15.56;59.55
66945;BME280;53853;51.982;5.928;2023-04-16T11:07:16;102319.59;;;15.70;59.93
66945;BME280;53853;51.982;5.928;2023-04-16T11:09:56;102316.72;;;15.82;58.49
66945;BME280;53853;51.982;5.928;2023-04-16T11:12:34;102311.59;;;15.88;57.98
66945;BME280;53853;51.982;5.928;2023-04-16T11:15:06;102314.00;;;15.91;58.16
66945;BME280;53853;51.982;5.928;2023-04-16T11:17:37;102318.47;;;16.01;58.11
66945;BME280;53853;51.982;5.928;2023-04-16T11:20:13;102325.66;;;16.10;57.55
66945;BME280;53853;51.982;5.928;2023-04-16T11:22:44;102315.69;;;16.20;57.60
66945;BME280;53853;51.982;5.928;2023-04-16T11:25:18;102326.97;;;16.24;56.11
66945;BME280;53853;51.982;5.928;2023-04-16T11:27:52;102318.66;;;16.17;57.17
66945;BME280;53853;51.982;5.928;2023-04-16T11:30:28;102325.75;;;16.18;57.02
66945;BME280;53853;51.982;5.928;2023-04-16T11:33:01;102315.59;;;16.12;56.05
66945;BME280;53853;51.982;5.928;2023-04-16T11:35:31;102323.34;;;16.15;56.79
66945;BME280;53853;51.982;5.928;2023-04-16T11:38:01;102317.97;;;16.15;56.09
66945;BME280;53853;51.982;5.928;2023-04-16T11:40:32;102322.47;;;16.24;56.82
66945;BME280;53853;51.982;5.928;2023-04-16T11:43:13;102322.84;;;16.29;56.22
66945;BME280;53853;51.982;5.928;2023-04-16T11:45:58;102317.91;;;16.25;55.73
66945;BME280;53853;51.982;5.928;2023-04-16T11:48:46;102317.53;;;16.20;56.07
66945;BME280;53853;51.982;5.928;2023-04-16T11:51:16;102326.88;;;16.16;56.09
66945;BME280;53853;51.982;5.928;2023-04-16T11:53:48;102323.00;;;16.00;56.04
66945;BME280;53853;51.982;5.928;2023-04-16T11:56:26;102332.75;;;16.01;56.44
66945;BME280;53853;51.982;5.928;2023-04-16T11:59:08;102322.69;;;16.03;56.79
66945;BME280;53853;51.982;5.928;2023-04-16T12:01:40;102322.25;;;16.08;56.75
66945;BME280;53853;51.982;5.928;2023-04-16T12:04:12;102331.47;;;16.05;56.07
66945;BME280;53853;51.982;5.928;2023-04-16T12:07:06;102332.63;;;16.03;56.49
66945;BME280;53853;51.982;5.928;2023-04-16T12:09:36;102332.72;;;16.11;55.80
66945;BME280;53853;51.982;5.928;2023-04-16T12:12:24;102327.03;;;16.14;56.57
66945;BME280;53853;51.982;5.928;2023-04-16T12:14:59;102329.38;;;16.27;56.47
66945;BME280;53853;51.982;5.928;2023-04-16T12:17:30;102337.69;;;16.34;55.90
66945;BME280;53853;51.982;5.928;2023-04-16T12:20:02;102332.16;;;16.35;55.89
66945;BME280;53853;51.982;5.928;2023-04-16T12:22:33;102331.00;;;16.38;55.76
66945;BME280;53853;51.982;5.928;2023-04-16T12:25:04;102327.56;;;16.45;55.79
66945;BME280;53853;51.982;5.928;2023-04-16T12:27:42;102344.38;;;16.47;54.65
66945;BME280;53853;51.982;5.928;2023-04-16T12:30:17;102344.69;;;16.44;54.92
66945;BME280;53853;51.982;5.928;2023-04-16T12:32:49;102345.25;;;16.48;55.65
66945;BME280;53853;51.982;5.928;2023-04-16T12:35:30;102344.72;;;16.62;54.70
66945;BME280;53853;51.982;5.928;2023-04-16T12:38:00;102345.78;;;16.70;54.86
66945;BME280;53853;51.982;5.928;2023-04-16T12:40:30;102340.97;;;16.73;54.60
66945;BME280;53853;51.982;5.928;2023-04-16T12:42:59;102343.47;;;16.75;54.63
66945;BME280;53853;51.982;5.928;2023-04-16T12:45:32;102342.88;;;16.81;54.37
66945;BME280;53853;51.982;5.928;2023-04-16T12:48:02;102342.09;;;16.71;54.22
66945;BME280;53853;51.982;5.928;2023-04-16T12:50:32;102340.03;;;16.64;54.17
66945;BME280;53853;51.982;5.928;2023-04-16T12:53:01;102343.56;;;16.65;54.92
66945;BME280;53853;51.982;5.928;2023-04-16T12:55:32;102350.66;;;16.66;54.56
66945;BME280;53853;51.982;5.928;2023-04-16T12:58:01;102351.47;;;16.66;54.84
66945;BME280;53853;51.982;5.928;2023-04-16T13:00:35;102349.97;;;16.64;55.06
66945;BME280;53853;51.982;5.928;2023-04-16T13:03:04;102350.78;;;16.64;55.11
66945;BME280;53853;51.982;5.928;2023-04-16T13:05:34;102345.34;;;16.56;54.75
66945;BME280;53853;51.982;5.928;2023-04-16T13:08:04;102345.34;;;16.56;55.64
66945;BME280;53853;51.982;5.928;2023-04-16T13:10:34;102344.47;;;16.56;55.89
66945;BME280;53853;51.982;5.928;2023-04-16T13:13:05;102344.81;;;16.53;55.33
66945;BME280;53853;51.982;5.928;2023-04-16T13:15:37;102338.16;;;16.47;55.20
66945;BME280;53853;51.982;5.928;2023-04-16T13:18:07;102339.41;;;16.53;55.25
66945;BME280;53853;51.982;5.928;2023-04-16T13:20:37;102337.09;;;16.58;55.35